Time;durP1;ratioP1;P1;durP2;ratioP2;P2;SDS_P1;SDS_P2;PMS_P1;PMS_P2;Temp;Humidity;BMP_temperature;BMP_pressure;BME280_temperature;BME280_humidity;BME280_pressure;Samples;Min_cycle;Max_cycle;Signal;HPM_P1;HPM_P2
2020/12/20 00:00:33;;;;;;;6.40;5.30;;;11.60;99.90;;;;;;5047294;28;20939;-37
2020/12/20 00:02:59;;;;;;;5.00;4.50;;;11.40;99.90;;;;;;5048309;28;20185;-37
2020/12/20 00:05:25;;;;;;;7.20;4.60;;;11.60;99.90;;;;;;5048832;28;20261;-37
2020/12/20 00:07:52;;;;;;;6.13;4.97;;;11.50;99.90;;;;;;5049156;28;20205;-37
2020/12/20 00:10:19;;;;;;;6.23;5.37;;;11.50;99.90;;;;;;5049274;28;20485;-37
2020/12/20 00:12:46;;;;;;;5.10;4.60;;;11.40;99.90;;;;;;5049284;28;20424;-37
2020/12/20 00:15:13;;;;;;;5.60;4.90;;;11.40;99.90;;;;;;5048472;28;21016;-37
2020/12/20 00:17:39;;;;;;;5.20;4.70;;;11.50;99.90;;;;;;5049019;28;20936;-37
2020/12/20 00:20:07;;;;;;;4.73;4.23;;;11.50;99.90;;;;;;5048539;28;20472;-36
2020/12/20 00:22:33;;;;;;;5.47;4.73;;;11.40;99.90;;;;;;5047656;28;20194;-37
2020/12/20 00:24:59;;;;;;;5.80;4.70;;;11.50;99.90;;;;;;5048296;28;20467;-37
2020/12/20 00:27:25;;;;;;;5.30;4.80;;;11.50;99.90;;;;;;5049002;28;20459;-37
2020/12/20 00:29:51;;;;;;;5.70;4.60;;;11.60;99.90;;;;;;5048707;28;20547;-36
2020/12/20 00:32:17;;;;;;;5.87;4.90;;;11.50;99.90;;;;;;5048132;28;20428;-37
2020/12/20 00:34:43;;;;;;;7.93;4.73;;;11.40;99.90;;;;;;5048087;28;20842;-37
2020/12/20 00:37:09;;;;;;;5.50;5.00;;;11.40;99.90;;;;;;5048497;28;20793;-37
2020/12/20 00:39:35;;;;;;;5.67;5.00;;;11.50;99.90;;;;;;5048951;28;20871;-37
2020/12/20 00:42:04;;;;;;;6.53;5.43;;;11.50;99.90;;;;;;5048552;28;20464;-37
2020/12/20 00:44:31;;;;;;;6.97;5.00;;;11.60;99.90;;;;;;5048076;28;20674;-37
2020/12/20 00:46:58;;;;;;;6.37;5.50;;;11.60;99.90;;;;;;5048533;28;20428;-37
2020/12/20 00:49:25;;;;;;;7.23;5.13;;;11.40;99.90;;;;;;5048617;28;20420;-37
2020/12/20 00:51:52;;;;;;;5.03;4.53;;;11.40;99.90;;;;;;5048434;28;20460;-36
2020/12/20 00:54:18;;;;;;;5.77;4.57;;;11.40;99.90;;;;;;5047976;28;20428;-37
2020/12/20 00:56:44;;;;;;;5.83;4.90;;;11.40;99.90;;;;;;5047353;28;20509;-37
2020/12/20 00:59:10;;;;;;;5.20;4.70;;;11.50;99.90;;;;;;5048245;28;20190;-36
2020/12/20 01:01:37;;;;;;;5.90;4.80;;;11.40;99.90;;;;;;5048462;28;20428;-37
2020/12/20 01:04:02;;;;;;;8.37;4.90;;;11.20;99.90;;;;;;5047356;28;20955;-36
2020/12/20 01:06:28;;;;;;;5.87;5.27;;;11.30;99.90;;;;;;5048223;28;20484;-36
2020/12/20 01:08:54;;;;;;;5.40;4.30;;;11.60;99.90;;;;;;5048346;28;20194;-37
2020/12/20 01:11:20;;;;;;;4.90;4.40;;;11.30;99.90;;;;;;5047061;28;20683;-36
2020/12/20 01:13:47;;;;;;;6.97;5.00;;;11.50;99.90;;;;;;5046215;28;20201;-37
2020/12/20 01:16:21;;;;;;;7.23;5.07;;;11.40;99.90;;;;;;5048035;28;20838;-37
2020/12/20 01:18:47;;;;;;;5.53;4.80;;;11.20;99.90;;;;;;5048126;28;20428;-37
2020/12/20 01:21:13;;;;;;;6.00;5.40;;;11.30;99.90;;;;;;5048186;28;20431;-36
2020/12/20 01:23:39;;;;;;;5.10;4.60;;;11.30;99.90;;;;;;5047236;28;20449;-37
2020/12/20 01:26:05;;;;;;;7.57;4.63;;;11.30;99.90;;;;;;5046748;28;20439;-37
2020/12/20 01:28:32;;;;;;;5.23;4.70;;;11.50;99.90;;;;;;5047550;28;20598;-37
2020/12/20 01:30:58;;;;;;;5.40;4.90;;;11.30;99.90;;;;;;5046587;28;20436;-37
2020/12/20 01:33:24;;;;;;;6.30;4.80;;;11.40;99.90;;;;;;5046459;28;20717;-37
2020/12/20 01:35:50;;;;;;;6.90;5.40;;;11.30;99.90;;;;;;5047919;28;20537;-36
2020/12/20 01:38:16;;;;;;;7.83;5.40;;;11.30;99.90;;;;;;5047784;28;20227;-36
2020/12/20 01:40:49;;;;;;;5.87;4.83;;;11.40;99.90;;;;;;5048046;28;20189;-37
2020/12/20 01:43:14;;;;;;;5.53;5.03;;;11.30;99.90;;;;;;5047317;28;20820;-37
2020/12/20 01:45:40;;;;;;;6.30;5.07;;;11.40;99.90;;;;;;5047626;28;20443;-36
2020/12/20 01:48:07;;;;;;;5.67;4.90;;;11.30;99.90;;;;;;5047569;28;20606;-37
2020/12/20 01:50:33;;;;;;;5.30;4.80;;;11.30;99.90;;;;;;5046323;28;20320;-37
2020/12/20 01:52:59;;;;;;;8.63;5.17;;;11.30;99.90;;;;;;5047104;28;20511;-37
2020/12/20 01:55:26;;;;;;;6.97;5.50;;;11.30;99.90;;;;;;5047572;28;20205;-36
2020/12/20 01:57:53;;;;;;;6.80;4.70;;;11.30;99.90;;;;;;5047583;28;20932;-37
2020/12/20 02:00:18;;;;;;;8.10;5.30;;;11.20;99.90;;;;;;5047407;28;20566;-38
2020/12/20 02:02:44;;;;;;;5.80;5.17;;;11.30;99.90;;;;;;5047675;28;21005;-37
2020/12/20 02:05:10;;;;;;;5.87;4.90;;;11.30;99.90;;;;;;5046910;28;20201;-37
2020/12/20 02:07:36;;;;;;;6.47;5.40;;;11.20;99.90;;;;;;5047652;28;20564;-36
2020/12/20 02:10:02;;;;;;;7.17;4.90;;;11.00;99.90;;;;;;5047532;28;20436;-36
2020/12/20 02:12:28;;;;;;;5.00;4.50;;;11.20;99.90;;;;;;5047378;28;20197;-36
2020/12/20 02:14:54;;;;;;;6.67;5.40;;;11.20;99.90;;;;;;5046424;28;20464;-36
2020/12/20 02:17:20;;;;;;;6.90;5.37;;;11.00;99.90;;;;;;5047377;28;20201;-37
2020/12/20 02:19:46;;;;;;;5.70;4.90;;;11.40;99.90;;;;;;5026348;28;20451;-36
2020/12/20 02:22:11;;;;;;;5.80;4.80;;;11.00;99.90;;;;;;5046093;28;20424;-37
2020/12/20 02:24:37;;;;;;;5.90;4.50;;;11.10;99.90;;;;;;5046977;28;20190;-36
2020/12/20 02:27:03;;;;;;;5.13;4.73;;;11.20;99.90;;;;;;5047065;28;20227;-36
2020/12/20 02:29:29;;;;;;;6.77;5.03;;;11.10;99.90;;;;;;5047313;28;20202;-37
2020/12/20 02:31:55;;;;;;;6.23;5.40;;;11.20;99.90;;;;;;5046180;28;20560;-38
2020/12/20 02:34:21;;;;;;;5.90;5.30;;;11.10;99.90;;;;;;5046919;28;20456;-37
2020/12/20 02:36:47;;;;;;;5.80;5.00;;;11.30;99.90;;;;;;5047130;28;21237;-37
2020/12/20 02:39:13;;;;;;;9.10;5.63;;;11.30;99.90;;;;;;5046023;28;20197;-36
2020/12/20 02:41:38;;;;;;;9.13;5.83;;;11.20;99.90;;;;;;5047171;28;20193;-37
2020/12/20 02:44:04;;;;;;;7.37;5.20;;;11.10;99.90;;;;;;5049136;28;20186;-37
2020/12/20 02:46:30;;;;;;;6.23;4.60;;;11.10;99.90;;;;;;5050457;28;20201;-37
2020/12/20 02:48:57;;;;;;;4.87;4.37;;;11.20;99.90;;;;;;5050949;28;20629;-37
2020/12/20 02:51:23;;;;;;;7.23;4.43;;;11.20;99.90;;;;;;5050829;28;20511;-37
2020/12/20 02:53:49;;;;;;;5.47;4.60;;;11.30;99.90;;;;;;5050176;28;20619;-37
2020/12/20 02:56:15;;;;;;;5.60;4.20;;;11.40;99.90;;;;;;5051108;28;20578;-37
2020/12/20 02:58:41;;;;;;;7.10;4.50;;;11.20;99.90;;;;;;5050536;28;20423;-37
2020/12/20 03:01:07;;;;;;;4.97;4.47;;;11.10;99.90;;;;;;5050953;28;20189;-37
2020/12/20 03:03:32;;;;;;;5.67;4.50;;;11.20;99.90;;;;;;5049954;28;20253;-37
2020/12/20 03:05:58;;;;;;;5.27;4.77;;;11.20;99.90;;;;;;5050635;28;20204;-36
2020/12/20 03:08:24;;;;;;;5.77;4.83;;;11.10;99.90;;;;;;5050348;28;20189;-37
2020/12/20 03:10:50;;;;;;;6.30;5.13;;;11.20;99.90;;;;;;5050808;28;20930;-36
2020/12/20 03:13:16;;;;;;;5.80;4.60;;;11.10;99.90;;;;;;5049382;28;20452;-37
2020/12/20 03:15:43;;;;;;;5.80;5.00;;;11.10;99.90;;;;;;5050198;28;20803;-37
2020/12/20 03:18:09;;;;;;;5.23;4.73;;;11.10;99.90;;;;;;5050456;28;20190;-37
2020/12/20 03:20:35;;;;;;;5.10;4.60;;;11.10;99.90;;;;;;5050379;28;20511;-36
2020/12/20 03:23:01;;;;;;;5.80;4.77;;;11.20;99.90;;;;;;5049807;28;20512;-37
2020/12/20 03:25:27;;;;;;;5.47;4.67;;;11.10;99.90;;;;;;5050245;28;20434;-37
2020/12/20 03:27:53;;;;;;;5.70;4.80;;;11.20;99.90;;;;;;5049718;28;20280;-37
2020/12/20 03:30:19;;;;;;;5.60;5.10;;;11.10;99.90;;;;;;5056260;28;20559;-37
2020/12/20 03:32:44;;;;;;;6.07;4.87;;;11.00;99.90;;;;;;5070070;28;20914;-37
2020/12/20 03:35:10;;;;;;;7.80;5.40;;;11.10;99.90;;;;;;5069262;28;20469;-37
2020/12/20 03:37:36;;;;;;;6.10;5.47;;;10.90;99.90;;;;;;5070056;28;20189;-37
2020/12/20 03:40:03;;;;;;;6.10;5.50;;;11.20;99.90;;;;;;5069663;28;20687;-37
2020/12/20 03:42:29;;;;;;;6.57;5.80;;;11.00;99.90;;;;;;5069739;28;20181;-37
2020/12/20 03:44:55;;;;;;;5.80;4.90;;;11.00;99.90;;;;;;5067773;28;20426;-36
2020/12/20 03:47:20;;;;;;;7.73;5.17;;;11.00;99.90;;;;;;5069795;28;20197;-36
2020/12/20 03:49:46;;;;;;;6.10;5.60;;;11.10;99.90;;;;;;5069579;28;20667;-36
2020/12/20 03:52:12;;;;;;;8.13;5.30;;;11.10;99.90;;;;;;5069804;28;20720;-37
2020/12/20 03:54:37;;;;;;;5.50;4.90;;;11.10;99.90;;;;;;5068209;28;20201;-37
2020/12/20 03:57:03;;;;;;;6.60;5.50;;;11.20;99.90;;;;;;5069375;28;20189;-36
2020/12/20 03:59:29;;;;;;;6.40;5.80;;;11.10;99.90;;;;;;5069540;28;20193;-37
2020/12/20 04:01:54;;;;;;;6.97;6.27;;;11.00;99.90;;;;;;5069435;28;20189;-37
2020/12/20 04:04:20;;;;;;;5.90;5.20;;;10.90;99.90;;;;;;5068707;28;20189;-37
2020/12/20 04:06:46;;;;;;;5.33;4.80;;;11.00;99.90;;;;;;5069561;28;20582;-37
2020/12/20 04:09:12;;;;;;;7.40;6.17;;;11.00;99.90;;;;;;5069353;28;20193;-37
2020/12/20 04:11:37;;;;;;;6.17;5.57;;;10.90;99.90;;;;;;5068935;28;20367;-37
2020/12/20 04:14:03;;;;;;;7.03;5.50;;;11.00;99.90;;;;;;5067310;28;20719;-37
2020/12/20 04:16:29;;;;;;;5.33;4.83;;;11.20;99.90;;;;;;5069031;28;20260;-37
2020/12/20 04:18:54;;;;;;;5.87;5.37;;;10.90;99.90;;;;;;5069347;28;20246;-37
2020/12/20 04:21:20;;;;;;;6.23;5.20;;;11.10;99.90;;;;;;5069050;28;20272;-37
2020/12/20 04:23:46;;;;;;;7.47;5.37;;;10.90;99.90;;;;;;5068479;28;20550;-37
2020/12/20 04:26:12;;;;;;;6.27;5.53;;;11.00;99.90;;;;;;5067636;28;20204;-37
2020/12/20 04:28:38;;;;;;;6.03;5.40;;;11.00;99.90;;;;;;5056233;28;20204;-37
2020/12/20 04:31:04;;;;;;;8.47;5.60;;;10.90;99.90;;;;;;5056257;28;20930;-37
2020/12/20 04:33:29;;;;;;;6.23;5.53;;;10.80;99.90;;;;;;5048312;28;20424;-37
2020/12/20 04:35:55;;;;;;;6.87;6.17;;;10.90;99.90;;;;;;5048734;28;20576;-36
2020/12/20 04:38:21;;;;;;;6.00;5.17;;;11.10;99.90;;;;;;5048760;28;20189;-37
2020/12/20 04:40:46;;;;;;;7.70;5.63;;;11.00;99.90;;;;;;5048254;28;20656;-37
2020/12/20 04:43:12;;;;;;;6.30;5.13;;;10.70;99.90;;;;;;5047914;28;20716;-37
2020/12/20 04:45:39;;;;;;;5.93;5.40;;;10.80;99.90;;;;;;5048622;28;20189;-37
2020/12/20 04:48:05;;;;;;;7.30;6.40;;;10.70;99.90;;;;;;5048682;28;20432;-37
2020/12/20 04:50:32;;;;;;;5.90;5.30;;;10.80;99.90;;;;;;5048861;28;20744;-37
2020/12/20 04:53:00;;;;;;;6.67;5.80;;;11.10;99.90;;;;;;5047802;28;20518;-36
2020/12/20 04:55:26;;;;;;;6.90;6.20;;;10.90;99.90;;;;;;5030165;28;20463;-36
2020/12/20 04:57:53;;;;;;;6.37;5.77;;;11.00;99.90;;;;;;5048662;28;20784;-36
2020/12/20 05:00:21;;;;;;;6.17;5.57;;;11.00;99.90;;;;;;5048567;28;20896;-37
2020/12/20 05:02:47;;;;;;;6.67;5.97;;;10.80;99.90;;;;;;5048462;28;20609;-37
2020/12/20 05:05:13;;;;;;;7.33;5.10;;;10.60;99.90;;;;;;5047337;28;20876;-37
2020/12/20 05:07:41;;;;;;;5.87;5.27;;;11.00;99.90;;;;;;5048093;28;20212;-37
2020/12/20 05:10:07;;;;;;;7.00;6.30;;;10.60;99.90;;;;;;5048412;28;20419;-37
2020/12/20 05:12:35;;;;;;;7.73;5.43;;;10.70;99.90;;;;;;5048163;28;20456;-37
2020/12/20 05:15:23;;;;;;;6.03;5.43;;;10.80;99.90;;;;;;5047646;28;20470;-37
2020/12/20 05:17:48;;;;;;;8.73;5.70;;;10.70;99.90;;;;;;5047882;28;20497;-38
2020/12/20 05:20:40;;;;;;;8.57;5.93;;;10.70;99.90;;;;;;5046914;28;20428;-37
2020/12/20 05:23:06;;;;;;;5.90;5.33;;;10.70;99.90;;;;;;5047537;28;20182;-37
2020/12/20 05:25:33;;;;;;;6.50;5.80;;;10.70;99.90;;;;;;5047742;28;20923;-36
2020/12/20 05:28:11;;;;;;;5.93;5.33;;;10.70;99.90;;;;;;5047866;28;20935;-37
2020/12/20 05:30:39;;;;;;;7.57;5.83;;;10.60;99.90;;;;;;5046430;28;20819;-36
2020/12/20 05:33:05;;;;;;;8.37;6.30;;;10.70;99.90;;;;;;5046796;28;20435;-36
2020/12/20 05:35:32;;;;;;;6.27;5.67;;;10.80;99.90;;;;;;5047942;28;20549;-36
2020/12/20 05:37:59;;;;;;;7.13;5.70;;;10.90;99.90;;;;;;5047885;28;21037;-37
2020/12/20 05:40:31;;;;;;;7.63;6.17;;;10.60;99.90;;;;;;5047919;28;20420;-37
2020/12/20 05:43:08;;;;;;;7.13;5.90;;;10.80;99.90;;;;;;5047665;28;20431;-37
2020/12/20 05:45:35;;;;;;;6.90;6.20;;;10.70;99.90;;;;;;5047479;28;20436;-37
2020/12/20 05:48:15;;;;;;;7.40;6.70;;;10.70;99.90;;;;;;5046520;28;20432;-36
2020/12/20 05:50:50;;;;;;;7.10;6.40;;;10.70;99.90;;;;;;5047721;28;20439;-37
2020/12/20 05:53:24;;;;;;;7.60;6.80;;;10.70;99.90;;;;;;5046938;28;20814;-37
2020/12/20 05:55:51;;;;;;;6.73;6.03;;;10.90;99.90;;;;;;5047177;28;20459;-37
2020/12/20 05:58:17;;;;;;;7.30;6.10;;;10.80;99.90;;;;;;5047857;28;20593;-37
2020/12/20 06:00:44;;;;;;;6.60;6.00;;;10.90;99.90;;;;;;5047778;28;20432;-37
2020/12/20 06:03:11;;;;;;;6.30;5.43;;;10.70;99.90;;;;;;5046942;28;20424;-37
2020/12/20 06:05:41;;;;;;;8.00;6.90;;;10.80;99.90;;;;;;5047445;28;20450;-37
2020/12/20 06:08:11;;;;;;;8.53;6.13;;;10.70;99.90;;;;;;5047639;28;20835;-37
2020/12/20 06:10:49;;;;;;;7.10;6.40;;;10.70;99.90;;;;;;5047322;28;20432;-36
2020/12/20 06:13:19;;;;;;;7.13;5.50;;;10.80;99.90;;;;;;5047186;28;20428;-36
2020/12/20 06:15:51;;;;;;;7.27;6.00;;;10.80;99.90;;;;;;5047523;28;20815;-36
2020/12/20 06:18:23;;;;;;;6.67;6.07;;;10.70;99.90;;;;;;5049236;28;20547;-36
2020/12/20 06:20:53;;;;;;;6.13;5.53;;;10.70;99.90;;;;;;5051369;28;20489;-37
2020/12/20 06:23:27;;;;;;;8.30;5.60;;;10.90;99.90;;;;;;5050856;28;20420;-37
2020/12/20 06:25:54;;;;;;;6.57;5.87;;;10.80;99.90;;;;;;5051211;28;20581;-36
2020/12/20 06:28:29;;;;;;;8.30;6.90;;;10.70;99.90;;;;;;5051053;28;20756;-37
2020/12/20 06:30:55;;;;;;;9.90;7.60;;;10.60;99.90;;;;;;5049721;28;20937;-36
2020/12/20 06:33:57;;;;;;;9.47;7.10;;;10.70;99.90;;;;;;5050177;28;20442;-37
2020/12/20 06:36:23;;;;;;;8.33;7.40;;;10.80;99.90;;;;;;5051011;28;20498;-36
2020/12/20 06:38:55;;;;;;;9.20;7.67;;;10.60;99.90;;;;;;5039099;28;20433;-36
2020/12/20 06:41:51;;;;;;;7.63;6.83;;;10.70;99.90;;;;;;5047979;28;20908;-37
2020/12/20 06:44:17;;;;;;;8.00;7.20;;;10.60;99.90;;;;;;5050645;28;20431;-37
2020/12/20 06:46:43;;;;;;;8.20;7.17;;;10.60;99.90;;;;;;5051096;28;20504;-37
2020/12/20 06:49:31;;;;;;;8.27;7.33;;;10.50;99.90;;;;;;5050976;28;20225;-37
2020/12/20 06:52:20;;;;;;;7.03;6.43;;;10.50;99.90;;;;;;5050618;28;20427;-38
2020/12/20 06:55:12;;;;;;;7.57;6.80;;;10.50;99.90;;;;;;5050144;28;20424;-37
2020/12/20 06:58:03;;;;;;;10.27;7.77;;;10.60;99.90;;;;;;5051983;28;20958;-37
2020/12/20 07:00:40;;;;;;;9.40;8.27;;;10.80;99.90;;;;;;5050278;28;20784;-37
2020/12/20 07:03:07;;;;;;;8.80;8.00;;;10.70;99.90;;;;;;5049988;28;20763;-37
2020/12/20 07:05:33;;;;;;;10.00;7.10;;;10.60;99.90;;;;;;5050665;28;20431;-37
2020/12/20 07:08:29;;;;;;;9.67;8.00;;;10.50;99.90;;;;;;5050308;28;20509;-37
2020/12/20 07:11:21;;;;;;;10.67;7.20;;;10.60;99.90;;;;;;5050315;28;20451;-38
2020/12/20 07:13:48;;;;;;;8.57;7.67;;;10.40;99.90;;;;;;5050085;28;20451;-37
2020/12/20 07:16:21;;;;;;;8.70;7.80;;;10.50;99.90;;;;;;5049962;28;20567;-37
2020/12/20 07:19:00;;;;;;;8.83;7.97;;;10.70;99.90;;;;;;5050090;28;20859;-37
2020/12/20 07:21:29;;;;;;;11.63;8.30;;;10.60;99.90;;;;;;5049817;28;20424;-37
2020/12/20 07:24:17;;;;;;;9.23;7.40;;;10.60;99.90;;;;;;5049415;28;20930;-37
2020/12/20 07:26:43;;;;;;;9.40;8.40;;;10.60;99.90;;;;;;5049922;28;20471;-37
2020/12/20 07:29:09;;;;;;;11.23;8.10;;;10.60;99.90;;;;;;5048745;28;20718;-37
2020/12/20 07:31:35;;;;;;;9.07;8.00;;;10.50;99.90;;;;;;5048271;28;20786;-37
2020/12/20 07:34:02;;;;;;;9.20;8.30;;;10.60;99.90;;;;;;5049076;28;20288;-37
2020/12/20 07:36:28;;;;;;;9.57;8.57;;;10.70;99.90;;;;;;5049971;28;20478;-37
2020/12/20 07:38:54;;;;;;;10.83;9.27;;;10.60;99.90;;;;;;5049921;28;20802;-37
2020/12/20 07:41:21;;;;;;;10.57;8.77;;;10.40;99.90;;;;;;5049911;28;20186;-36
2020/12/20 07:43:47;;;;;;;7.83;7.03;;;10.40;99.90;;;;;;5048992;28;20490;-37
2020/12/20 07:46:15;;;;;;;9.30;7.90;;;10.30;99.90;;;;;;5049871;28;20926;-37
2020/12/20 07:48:41;;;;;;;10.20;7.83;;;10.40;99.90;;;;;;5049636;28;20459;-37
2020/12/20 07:51:11;;;;;;;8.73;7.83;;;10.30;99.90;;;;;;5050147;28;20428;-38
2020/12/20 07:53:44;;;;;;;10.70;8.30;;;10.40;99.90;;;;;;5049024;28;20877;-37
2020/12/20 07:56:10;;;;;;;8.50;7.60;;;10.50;99.90;;;;;;5049504;28;20551;-37
2020/12/20 07:58:36;;;;;;;9.80;8.80;;;10.30;99.90;;;;;;5049146;28;20998;-37
2020/12/20 08:01:06;;;;;;;8.67;7.77;;;10.20;99.90;;;;;;5049543;28;20673;-37
2020/12/20 08:03:35;;;;;;;10.50;8.83;;;10.40;99.90;;;;;;5048779;28;20424;-36
2020/12/20 08:06:12;;;;;;;9.20;8.30;;;10.40;99.90;;;;;;5048439;28;20481;-37
2020/12/20 08:08:39;;;;;;;9.13;7.90;;;10.40;99.90;;;;;;5049388;28;20434;-37
2020/12/20 08:11:20;;;;;;;8.47;7.23;;;10.40;99.90;;;;;;5049667;28;20519;-37
2020/12/20 08:13:51;;;;;;;9.10;8.17;;;10.50;99.90;;;;;;5048543;28;20518;-37
2020/12/20 08:16:24;;;;;;;9.23;8.03;;;10.50;99.90;;;;;;5049201;28;20478;-37
2020/12/20 08:19:17;;;;;;;10.40;8.20;;;10.50;99.90;;;;;;5049083;28;20550;-37
2020/12/20 08:21:57;;;;;;;9.00;8.10;;;10.40;99.90;;;;;;5049254;28;20452;-37
2020/12/20 08:24:28;;;;;;;10.90;8.70;;;10.50;99.90;;;;;;5048491;28;20443;-37
2020/12/20 08:26:54;;;;;;;9.57;7.67;;;10.40;99.90;;;;;;5053401;28;20488;-38
2020/12/20 08:29:20;;;;;;;9.90;8.00;;;10.40;99.90;;;;;;5044849;28;20893;-37
2020/12/20 08:31:46;;;;;;;11.13;8.70;;;10.60;99.90;;;;;;5046099;28;20424;-37
2020/12/20 08:34:21;;;;;;;8.87;7.87;;;10.40;99.90;;;;;;5047692;28;20793;-37
2020/12/20 08:36:52;;;;;;;8.70;7.80;;;10.40;99.90;;;;;;5054966;28;20466;-37
2020/12/20 08:39:24;;;;;;;10.27;8.33;;;10.80;99.90;;;;;;5068688;28;20419;-37
2020/12/20 08:42:07;;;;;;;8.47;7.53;;;10.50;99.90;;;;;;5068322;28;20482;-37
2020/12/20 08:44:33;;;;;;;8.87;7.97;;;10.50;99.90;;;;;;5067413;28;20419;-37
2020/12/20 08:47:14;;;;;;;9.90;8.50;;;10.60;99.90;;;;;;5068682;28;20435;-37
2020/12/20 08:49:57;;;;;;;7.80;6.73;;;10.70;99.90;;;;;;5068463;28;20435;-37
2020/12/20 08:52:25;;;;;;;8.80;7.40;;;10.70;99.90;;;;;;5068725;28;20988;-37
2020/12/20 08:54:51;;;;;;;8.23;7.40;;;10.60;99.90;;;;;;5065987;28;20434;-37
2020/12/20 08:57:23;;;;;;;9.10;7.73;;;11.10;99.90;;;;;;5065969;28;20428;-37
2020/12/20 08:59:49;;;;;;;10.73;7.50;;;11.10;99.90;;;;;;5067781;28;20411;-37
2020/12/20 09:02:21;;;;;;;8.90;7.40;;;11.30;99.90;;;;;;5067368;28;20504;-37
2020/12/20 09:05:09;;;;;;;8.63;7.70;;;11.40;99.90;;;;;;5066949;28;20203;-37
2020/12/20 09:07:36;;;;;;;8.53;7.50;;;11.50;99.90;;;;;;5066607;28;20411;-37
2020/12/20 09:10:07;;;;;;;7.93;7.13;;;11.60;99.90;;;;;;5067277;28;20427;-37
2020/12/20 09:12:32;;;;;;;8.30;7.50;;;11.40;99.90;;;;;;5067208;28;20481;-37
2020/12/20 09:15:01;;;;;;;8.57;7.17;;;11.30;99.90;;;;;;5066285;28;20965;-37
2020/12/20 09:17:31;;;;;;;8.53;7.63;;;11.40;99.90;;;;;;5066899;28;20443;-37
2020/12/20 09:19:58;;;;;;;12.10;8.23;;;11.40;99.90;;;;;;5066728;28;20423;-37
2020/12/20 09:22:44;;;;;;;8.17;7.07;;;11.40;99.90;;;;;;5066510;28;20933;-38
2020/12/20 09:25:11;;;;;;;8.40;7.30;;;11.70;99.90;;;;;;5066681;28;20446;-38
2020/12/20 09:27:37;;;;;;;7.90;6.90;;;11.80;99.90;;;;;;5067032;28;20478;-37
2020/12/20 09:30:05;;;;;;;7.50;6.70;;;12.00;99.90;;;;;;5034091;28;20543;-37
2020/12/20 09:32:38;;;;;;;9.67;7.77;;;12.20;99.90;;;;;;5044564;28;20186;-37
2020/12/20 09:35:07;;;;;;;10.57;7.43;;;12.60;99.90;;;;;;5043811;28;20464;-37
2020/12/20 09:37:40;;;;;;;7.07;6.30;;;12.50;99.90;;;;;;5046355;28;20949;-37
2020/12/20 09:40:07;;;;;;;8.97;6.43;;;12.80;99.90;;;;;;5045861;28;20409;-37
2020/12/20 09:42:40;;;;;;;8.00;6.30;;;12.50;99.90;;;;;;5046943;28;20768;-37
2020/12/20 09:45:10;;;;;;;7.87;6.50;;;12.50;99.90;;;;;;5045715;28;20424;-37
2020/12/20 09:47:37;;;;;;;12.20;7.10;;;12.50;99.90;;;;;;5047294;28;20503;-37
2020/12/20 09:50:04;;;;;;;7.47;6.30;;;12.20;99.90;;;;;;5046414;28;20507;-37
2020/12/20 09:52:30;;;;;;;7.57;6.60;;;12.40;99.90;;;;;;5044720;28;21048;-37
2020/12/20 09:54:56;;;;;;;7.57;6.10;;;12.60;99.90;;;;;;5044505;28;20424;-37
2020/12/20 09:57:21;;;;;;;8.80;6.40;;;12.70;99.90;;;;;;5045463;28;20247;-37
2020/12/20 09:59:47;;;;;;;7.30;6.07;;;12.70;99.90;;;;;;5046163;28;20193;-37
2020/12/20 10:02:13;;;;;;;6.57;5.97;;;13.20;99.90;;;;;;5045274;28;20193;-37
2020/12/20 10:04:38;;;;;;;9.20;5.93;;;13.50;99.90;;;;;;5044968;28;20251;-37
2020/12/20 10:07:04;;;;;;;7.47;5.80;;;14.20;99.90;;;;;;5043126;28;20525;-37
2020/12/20 10:09:30;;;;;;;6.30;5.70;;;14.90;99.90;;;;;;5050054;28;20720;-37
2020/12/20 10:11:55;;;;;;;7.67;5.70;;;15.50;99.90;;;;;;5046336;28;20220;-36
2020/12/20 10:14:21;;;;;;;7.33;5.50;;;15.50;99.90;;;;;;5045561;28;20194;-37
2020/12/20 10:16:51;;;;;;;6.10;5.17;;;15.60;99.90;;;;;;5046339;28;20226;-37
2020/12/20 10:19:17;;;;;;;5.73;5.10;;;15.90;99.90;;;;;;5045166;28;20224;-37
2020/12/20 10:21:48;;;;;;;7.43;5.57;;;16.00;99.90;;;;;;5046503;28;20681;-36
2020/12/20 10:24:14;;;;;;;5.83;5.13;;;15.80;99.90;;;;;;5045625;28;20220;-36
2020/12/20 10:26:42;;;;;;;9.03;5.80;;;15.50;99.90;;;;;;5049934;28;20427;-38
2020/12/20 10:29:10;;;;;;;7.10;5.53;;;15.30;99.90;;;;;;5045285;28;20190;-37
2020/12/20 10:31:36;;;;;;;5.60;4.70;;;15.00;99.90;;;;;;5042033;28;20876;-37
2020/12/20 10:34:02;;;;;;;6.30;5.10;;;14.90;99.90;;;;;;5045545;28;20432;-37
2020/12/20 10:36:28;;;;;;;6.47;5.77;;;14.80;99.90;;;;;;5045752;28;20833;-37
2020/12/20 10:38:53;;;;;;;5.70;5.00;;;14.50;99.90;;;;;;5045881;28;20182;-37
2020/12/20 10:41:19;;;;;;;6.17;5.57;;;14.20;99.90;;;;;;5047497;28;20787;-37
2020/12/20 10:43:45;;;;;;;5.23;4.53;;;13.90;99.90;;;;;;5045223;28;20213;-37
2020/12/20 10:46:12;;;;;;;6.07;4.50;;;13.50;99.90;;;;;;5043845;28;20193;-37
2020/12/20 10:48:37;;;;;;;7.40;4.80;;;13.30;99.90;;;;;;5044741;28;20186;-38
2020/12/20 10:51:03;;;;;;;5.27;4.77;;;13.10;99.90;;;;;;5047557;28;20428;-37
2020/12/20 10:53:29;;;;;;;6.30;4.50;;;12.90;99.90;;;;;;5047610;28;20206;-37
2020/12/20 10:55:54;;;;;;;7.17;5.10;;;12.80;99.90;;;;;;5045206;28;20210;-37
2020/12/20 10:58:20;;;;;;;6.60;4.33;;;12.90;99.90;;;;;;5045238;28;20201;-37
2020/12/20 11:00:46;;;;;;;6.00;4.03;;;12.70;99.90;;;;;;5044730;28;20560;-37
2020/12/20 11:03:11;;;;;;;5.53;4.30;;;12.80;99.90;;;;;;5043622;28;20700;-37
2020/12/20 11:05:37;;;;;;;7.43;3.70;;;12.50;99.90;;;;;;5049080;28;20190;-37
2020/12/20 11:08:03;;;;;;;10.67;5.10;;;12.40;99.90;;;;;;5047936;28;20217;-37
2020/12/20 11:10:28;;;;;;;5.73;3.90;;;12.30;99.90;;;;;;5049317;28;20274;-37
2020/12/20 11:12:54;;;;;;;8.63;4.03;;;12.30;99.90;;;;;;5049912;28;20189;-37
2020/12/20 11:15:20;;;;;;;5.97;3.83;;;12.20;99.90;;;;;;5052749;28;20664;-37
2020/12/20 11:17:46;;;;;;;8.97;3.67;;;12.20;99.90;;;;;;5048064;28;20210;-37
2020/12/20 11:20:12;;;;;;;9.80;4.10;;;12.30;99.90;;;;;;5054082;28;20425;-37
2020/12/20 11:22:38;;;;;;;5.80;3.90;;;12.30;99.90;;;;;;5048516;28;20458;-37
2020/12/20 11:25:03;;;;;;;7.33;4.00;;;12.40;99.90;;;;;;5047545;28;20246;-37
2020/12/20 11:27:29;;;;;;;6.23;3.63;;;12.40;99.90;;;;;;5048777;28;20304;-37
2020/12/20 11:29:55;;;;;;;10.20;4.00;;;12.40;99.90;;;;;;5045558;28;20793;-37
2020/12/20 11:32:20;;;;;;;4.57;3.87;;;12.40;99.90;;;;;;5057693;28;20587;-37
2020/12/20 11:34:46;;;;;;;7.23;3.47;;;12.30;99.90;;;;;;5045122;28;20197;-37
2020/12/20 11:37:12;;;;;;;4.80;3.40;;;12.30;99.90;;;;;;5049266;28;20280;-37
2020/12/20 11:39:37;;;;;;;5.80;3.50;;;12.40;99.90;;;;;;5049659;28;20684;-37
2020/12/20 11:42:03;;;;;;;7.57;3.80;;;12.30;99.90;;;;;;5050162;28;20255;-37
2020/12/20 11:44:29;;;;;;;4.27;3.57;;;12.10;99.90;;;;;;5047281;28;20189;-37
2020/12/20 11:46:54;;;;;;;5.17;4.60;;;12.30;99.90;;;;;;5048497;28;20668;-37
2020/12/20 11:49:20;;;;;;;5.20;4.17;;;12.20;99.90;;;;;;5047600;28;20567;-37
2020/12/20 11:51:46;;;;;;;5.87;3.90;;;12.10;99.90;;;;;;5050062;28;20264;-37
2020/12/20 11:54:12;;;;;;;5.17;3.40;;;12.50;99.90;;;;;;5060371;28;20208;-37
2020/12/20 11:56:38;;;;;;;4.23;3.83;;;12.40;99.90;;;;;;5048241;28;20464;-37
2020/12/20 11:59:04;;;;;;;6.17;3.00;;;12.40;99.90;;;;;;5048923;28;20188;-37
2020/12/20 12:01:30;;;;;;;4.53;3.83;;;12.40;99.90;;;;;;5047477;28;20216;-37
2020/12/20 12:03:56;;;;;;;5.47;3.10;;;12.40;99.90;;;;;;5049164;28;20186;-37
2020/12/20 12:06:22;;;;;;;6.30;3.43;;;12.50;99.90;;;;;;5047224;28;20501;-37
2020/12/20 12:08:48;;;;;;;6.90;3.83;;;12.50;99.90;;;;;;5045628;28;20624;-37
2020/12/20 12:11:19;;;;;;;5.00;3.10;;;12.30;99.90;;;;;;5045267;28;20182;-36
2020/12/20 12:13:44;;;;;;;6.27;3.57;;;12.30;99.90;;;;;;5047421;28;20189;-37
2020/12/20 12:16:10;;;;;;;6.40;3.77;;;12.30;99.90;;;;;;5047325;28;20472;-37
2020/12/20 12:18:36;;;;;;;7.77;3.60;;;12.30;99.90;;;;;;5048257;28;20185;-38
2020/12/20 12:21:02;;;;;;;5.97;4.00;;;12.20;99.90;;;;;;5048187;28;20817;-38
2020/12/20 12:23:27;;;;;;;5.23;3.50;;;12.30;99.90;;;;;;5047432;28;20197;-35
2020/12/20 12:25:54;;;;;;;3.93;2.90;;;12.20;99.90;;;;;;5048116;28;20202;-39
2020/12/20 12:28:20;;;;;;;4.07;3.20;;;12.20;99.90;;;;;;5059531;22;20256;-82
2020/12/20 12:30:46;;;;;;;9.20;3.60;;;12.20;99.90;;;;;;4987670;28;20765;-82
2020/12/20 12:33:12;;;;;;;6.20;4.47;;;12.30;99.90;;;;;;5003184;28;20610;-82
2020/12/20 12:35:40;;;;;;;5.00;2.83;;;12.30;99.90;;;;;;5005220;28;20233;-84
2020/12/20 12:38:06;;;;;;;6.15;4.00;;;12.20;99.90;;;;;;5021312;28;20406;-84
2020/12/20 12:40:31;;;;;;;7.60;4.03;;;12.40;99.90;;;;;;5005907;28;20698;-86
2020/12/20 12:42:57;;;;;;;5.07;3.80;;;12.40;99.90;;;;;;4994810;28;20186;-84
2020/12/20 12:45:25;;;;;;;7.50;3.80;;;12.20;99.90;;;;;;5000137;28;20446;-87
2020/12/20 12:47:51;;;;;;;7.73;3.60;;;12.30;99.90;;;;;;4981055;28;20802;-84
2020/12/20 12:50:17;;;;;;;4.60;3.30;;;12.20;99.90;;;;;;4994135;28;20427;-83